createdAt,value
2022-10-23T00:04:44.982Z,13.10
2022-10-23T00:09:48.123Z,12.60
2022-10-23T00:14:51.221Z,12.80
2022-10-23T00:19:54.506Z,12.40
2022-10-23T00:24:58.091Z,12.20
2022-10-23T00:30:02.430Z,13.00
2022-10-23T00:35:06.316Z,12.20
2022-10-23T00:40:10.197Z,12.70
2022-10-23T00:45:28.756Z,10.90
2022-10-23T00:50:33.971Z,13.10
2022-10-23T00:55:38.694Z,11.60
2022-10-23T01:00:48.964Z,11.60
2022-10-23T01:06:09.139Z,12.10
2022-10-23T01:11:36.594Z,11.60
2022-10-23T01:16:53.561Z,12.00
2022-10-23T01:22:38.245Z,11.40
2022-10-23T01:27:49.743Z,10.90
2022-10-23T01:32:58.590Z,11.70
2022-10-23T01:38:16.142Z,12.20
2022-10-23T01:43:31.418Z,12.20
2022-10-23T01:48:36.793Z,11.00
2022-10-23T01:53:43.575Z,11.30
2022-10-23T01:58:50.627Z,12.00
2022-10-23T02:03:54.534Z,12.30
2022-10-23T02:08:57.775Z,12.10
2022-10-23T02:14:29.888Z,13.10
2022-10-23T02:20:03.891Z,13.80
2022-10-23T02:25:19.471Z,12.60
2022-10-23T02:30:22.805Z,13.20
2022-10-23T02:35:26.522Z,13.80
2022-10-23T02:40:40.887Z,13.50
2022-10-23T02:46:33.477Z,13.20
2022-10-23T02:51:48.616Z,13.40
2022-10-23T02:57:46.870Z,12.80
2022-10-23T03:02:58.046Z,14.20
2022-10-23T03:08:05.184Z,12.30
2022-10-23T03:13:09.814Z,13.30
2022-10-23T03:18:13.015Z,14.70
2022-10-23T03:23:16.208Z,14.70
2022-10-23T03:28:19.518Z,14.30
2022-10-23T03:33:23.306Z,14.20
2022-10-23T03:38:27.150Z,13.80
2022-10-23T03:43:30.287Z,15.60
2022-10-23T03:48:33.474Z,15.60
2022-10-23T03:53:36.723Z,14.80
2022-10-23T03:58:39.806Z,14.50
2022-10-23T04:03:43.050Z,13.80
2022-10-23T04:08:46.368Z,15.30
2022-10-23T04:13:49.591Z,15.20
2022-10-23T04:18:53.157Z,13.40
2022-10-23T04:23:56.335Z,13.00
2022-10-23T04:28:59.393Z,13.70
2022-10-23T04:34:02.560Z,13.60
2022-10-23T04:39:05.708Z,14.40
2022-10-23T04:44:08.952Z,14.90
2022-10-23T04:49:12.142Z,14.50
2022-10-23T04:54:15.622Z,13.10
2022-10-23T04:59:19.188Z,14.60
2022-10-23T05:04:22.559Z,13.40
2022-10-23T05:09:25.776Z,11.80
2022-10-23T05:14:28.902Z,14.50
2022-10-23T05:19:39.112Z,14.50
2022-10-23T05:24:46.961Z,15.20
2022-10-23T05:29:53.586Z,15.90
2022-10-23T05:34:57.326Z,15.10
2022-10-23T05:40:00.578Z,14.60
2022-10-23T05:45:04.108Z,15.40
2022-10-23T05:50:07.388Z,15.40
2022-10-23T05:55:10.538Z,14.50
2022-10-23T06:00:14.036Z,16.60
2022-10-23T06:05:17.526Z,14.00
2022-10-23T06:10:20.613Z,14.00
2022-10-23T06:15:23.693Z,12.00
2022-10-23T06:20:28.781Z,12.00
2022-10-23T06:25:33.178Z,10.50
2022-10-23T06:30:39.645Z,11.70
2022-10-23T06:35:43.213Z,10.10
2022-10-23T06:40:53.272Z,10.10
2022-10-23T06:45:56.385Z,9.70
2022-10-23T06:51:04.513Z,10.40
2022-10-23T06:56:09.199Z,10.50
2022-10-23T07:01:14.375Z,17.60
2022-10-23T07:06:18.178Z,10.40
2022-10-23T07:11:21.280Z,9.00
2022-10-23T07:16:26.852Z,8.10
2022-10-23T07:21:45.681Z,8.70
2022-10-23T07:31:58.219Z,8.10
2022-10-23T07:37:01.306Z,8.70
2022-10-23T07:42:04.594Z,8.10
2022-10-23T07:47:07.693Z,8.70
2022-10-23T07:52:11.378Z,8.80
2022-10-23T07:57:14.547Z,7.70
2022-10-23T08:02:17.783Z,8.70
2022-10-23T08:07:21.029Z,8.80
2022-10-23T08:12:24.232Z,11.60
2022-10-23T08:17:28.358Z,11.50
2022-10-23T08:22:34.879Z,10.80
2022-10-23T08:27:38.760Z,9.70
2022-10-23T08:32:41.888Z,11.50
2022-10-23T08:37:45.216Z,10.50
2022-10-23T08:42:58.350Z,7.70
2022-10-23T08:48:30.240Z,6.90
2022-10-23T08:53:44.789Z,7.00
2022-10-23T08:58:55.941Z,6.40
2022-10-23T09:03:59.189Z,5.10
2022-10-23T09:09:40.419Z,6.20
2022-10-23T09:15:02.370Z,7.70
2022-10-23T09:20:25.700Z,7.40
2022-10-23T09:25:40.977Z,8.40
2022-10-23T09:30:44.214Z,7.00
2022-10-23T09:35:59.711Z,8.10
2022-10-23T09:41:24.707Z,8.60
2022-10-23T09:46:42.863Z,9.20
2022-10-23T09:51:52.443Z,7.70
2022-10-23T09:57:01.221Z,8.40
2022-10-23T10:02:20.891Z,8.90
2022-10-23T10:07:26.955Z,8.60
2022-10-23T10:12:37.825Z,9.30
2022-10-23T10:18:27.026Z,10.10
2022-10-23T10:23:57.176Z,9.90
2022-10-23T10:29:38.064Z,9.30
2022-10-23T10:34:51.951Z,10.20
2022-10-23T10:40:04.899Z,9.10
2022-10-23T10:45:27.329Z,11.20
2022-10-23T10:50:42.678Z,9.70
2022-10-23T10:55:51.170Z,12.10
2022-10-23T11:01:00.818Z,17.10
2022-10-23T11:06:06.378Z,17.10
2022-10-23T11:11:19.416Z,15.70
2022-10-23T11:16:37.570Z,12.70
2022-10-23T11:21:50.953Z,13.10
2022-10-23T11:27:08.729Z,12.50
2022-10-23T11:32:39.659Z,10.90
2022-10-23T11:37:43.001Z,9.70
2022-10-23T11:42:49.348Z,13.20
2022-10-23T11:48:00.190Z,11.60
2022-10-23T11:53:30.582Z,13.70
2022-10-23T11:58:56.295Z,12.70
2022-10-23T12:04:18.855Z,13.00
2022-10-23T12:09:43.738Z,13.50
2022-10-23T12:14:49.598Z,11.80
2022-10-23T12:20:16.241Z,12.80
2022-10-23T12:25:56.043Z,12.80
2022-10-23T12:31:01.755Z,12.30
2022-10-23T12:36:23.793Z,11.70
2022-10-23T12:41:29.382Z,11.20
2022-10-23T12:46:40.639Z,11.90
2022-10-23T12:51:44.703Z,12.00
2022-10-23T12:56:48.850Z,12.00
2022-10-23T13:01:53.205Z,11.40
2022-10-23T13:07:03.391Z,11.10
2022-10-23T13:12:08.846Z,11.60
2022-10-23T13:17:12.521Z,10.20
2022-10-23T13:22:22.503Z,10.80
2022-10-23T13:27:31.619Z,10.40
2022-10-23T13:32:34.815Z,11.10
2022-10-23T13:37:38.391Z,10.10
2022-10-23T13:42:42.016Z,10.50
2022-10-23T13:47:45.677Z,11.30
2022-10-23T13:52:49.008Z,12.00
2022-10-23T13:57:52.395Z,11.10
2022-10-23T14:08:03.758Z,12.30
2022-10-23T14:13:06.955Z,10.50
2022-10-23T14:18:10.025Z,10.90
2022-10-23T14:23:13.166Z,10.80
2022-10-23T14:28:16.298Z,10.30
2022-10-23T14:33:19.414Z,10.90
2022-10-23T14:38:22.616Z,10.10
2022-10-23T14:43:26.005Z,10.90
2022-10-23T14:48:29.129Z,11.10
2022-10-23T14:53:32.155Z,11.50
2022-10-23T14:58:35.255Z,12.00
2022-10-23T15:03:38.693Z,12.80
2022-10-23T15:08:41.867Z,13.30
2022-10-23T15:13:45.070Z,13.90
2022-10-23T15:18:49.059Z,12.90
2022-10-23T15:23:53.258Z,11.30
2022-10-23T15:28:59.206Z,10.60
2022-10-23T15:34:02.401Z,10.00
2022-10-23T15:39:10.478Z,11.30
2022-10-23T15:44:17.396Z,14.30
2022-10-23T15:49:21.031Z,12.10
2022-10-23T15:54:28.060Z,16.10
2022-10-23T15:59:33.968Z,17.80
2022-10-23T16:04:37.059Z,16.90
2022-10-23T16:09:40.134Z,13.40
2022-10-23T16:14:43.342Z,11.90
2022-10-23T16:19:46.891Z,15.90
2022-10-23T16:24:50.002Z,15.40
2022-10-23T16:29:53.164Z,15.40
2022-10-23T16:34:56.270Z,16.40
2022-10-23T16:40:01.186Z,17.30
2022-10-23T16:45:04.850Z,18.10
2022-10-23T16:50:08.316Z,18.80
2022-10-23T16:55:11.566Z,15.50
2022-10-23T17:00:15.001Z,14.10
2022-10-23T17:05:18.292Z,15.70
2022-10-23T17:10:21.441Z,14.30
2022-10-23T17:15:24.650Z,15.00
2022-10-23T17:20:28.170Z,17.50
2022-10-23T17:25:31.695Z,17.20
2022-10-23T17:30:38.797Z,19.80
2022-10-23T17:35:42.075Z,19.50
2022-10-23T17:40:47.049Z,16.50
2022-10-23T17:45:50.172Z,17.60
2022-10-23T17:51:11.632Z,15.60
2022-10-23T17:56:20.112Z,17.10
2022-10-23T18:01:26.714Z,14.70
2022-10-23T18:06:34.535Z,16.90
2022-10-23T18:11:45.263Z,19.90
2022-10-23T18:16:50.511Z,18.80
2022-10-23T18:21:53.931Z,19.00
2022-10-23T18:26:58.247Z,19.00
2022-10-23T18:32:01.606Z,19.30
2022-10-23T18:37:04.759Z,21.60
2022-10-23T18:42:08.232Z,19.50
2022-10-23T18:47:11.364Z,16.70
2022-10-23T18:52:15.048Z,14.10
2022-10-23T18:57:18.116Z,15.70
2022-10-23T19:02:21.443Z,15.60
2022-10-23T19:07:24.802Z,16.40
2022-10-23T19:12:28.046Z,16.30
2022-10-23T19:17:32.919Z,16.20
2022-10-23T19:22:40.532Z,18.00
2022-10-23T19:27:46.213Z,15.00
2022-10-23T19:32:50.257Z,14.30
2022-10-23T19:37:53.470Z,19.30
2022-10-23T19:42:56.673Z,18.10
2022-10-23T19:47:59.857Z,14.00
2022-10-23T19:53:03.155Z,16.80
2022-10-23T19:58:06.239Z,15.80
2022-10-23T20:03:09.351Z,15.70
2022-10-23T20:08:12.620Z,11.80
2022-10-23T20:13:19.945Z,17.10
2022-10-23T20:18:24.498Z,18.10
2022-10-23T20:23:27.597Z,16.70
2022-10-23T20:28:31.148Z,15.50
2022-10-23T20:33:39.423Z,15.80
2022-10-23T20:38:42.462Z,15.00
2022-10-23T20:43:45.798Z,17.20
2022-10-23T20:48:49.426Z,17.10
2022-10-23T20:53:54.875Z,15.80
2022-10-23T20:59:11.397Z,16.90
2022-10-23T21:04:14.755Z,18.50
2022-10-23T21:09:19.251Z,17.10
2022-10-23T21:14:22.342Z,18.40
2022-10-23T21:19:26.122Z,17.10
2022-10-23T21:24:29.234Z,18.60
2022-10-23T21:29:32.424Z,17.40
2022-10-23T21:34:35.629Z,18.50
2022-10-23T21:39:38.790Z,18.00
2022-10-23T21:44:41.991Z,19.50
2022-10-23T21:49:45.164Z,21.90
2022-10-23T21:54:52.777Z,20.80
2022-10-23T21:59:56.410Z,20.00
2022-10-23T22:04:59.512Z,19.00
2022-10-23T22:10:02.720Z,21.10
2022-10-23T22:15:06.813Z,19.70
2022-10-23T22:20:10.103Z,19.50
2022-10-23T22:25:13.222Z,17.20
2022-10-23T22:30:16.438Z,15.20
2022-10-23T22:35:19.603Z,17.00
2022-10-23T22:40:22.653Z,16.90
2022-10-23T22:45:25.781Z,15.80
2022-10-23T22:50:28.918Z,16.90
2022-10-23T22:55:32.051Z,13.40
2022-10-23T23:00:35.928Z,16.10
2022-10-23T23:05:46.155Z,12.90
2022-10-23T23:10:56.520Z,13.60
2022-10-23T23:15:59.957Z,16.20
2022-10-23T23:21:05.066Z,16.20
2022-10-23T23:26:08.604Z,16.10
2022-10-23T23:31:17.807Z,15.70
2022-10-23T23:36:24.685Z,11.90
2022-10-23T23:41:29.880Z,12.70
2022-10-23T23:46:32.975Z,13.70
2022-10-23T23:51:37.504Z,13.20
2022-10-23T23:56:40.641Z,13.70
